createdAt,value
2019-05-01T00:00:26.905Z,27.60
2019-05-01T00:01:26.863Z,28.90
2019-05-01T00:02:26.838Z,29.10
2019-05-01T00:03:26.814Z,28.80
2019-05-01T00:04:26.779Z,29.60
2019-05-01T00:05:26.826Z,27.60
2019-05-01T00:06:26.728Z,28.90
2019-05-01T00:07:26.685Z,29.40
2019-05-01T00:08:26.667Z,30.10
2019-05-01T00:09:26.730Z,28.20
2019-05-01T00:10:26.610Z,29.60
2019-05-01T00:11:26.590Z,29.90
2019-05-01T00:12:26.556Z,29.90
2019-05-01T00:13:26.528Z,29.00
2019-05-01T00:14:26.498Z,30.70
2019-05-01T00:15:26.472Z,29.90
2019-05-01T00:16:26.493Z,30.90
2019-05-01T00:17:27.820Z,29.80
2019-05-01T00:18:26.429Z,29.80
2019-05-01T00:19:26.364Z,30.70
2019-05-01T00:20:26.422Z,30.40
2019-05-01T00:21:26.301Z,30.00
2019-05-01T00:22:26.270Z,30.60
2019-05-01T00:23:26.250Z,30.10
2019-05-01T00:24:26.246Z,29.60
2019-05-01T00:25:26.185Z,30.80
2019-05-01T00:26:26.163Z,29.80
2019-05-01T00:27:34.736Z,31.20
2019-05-01T00:28:26.098Z,29.60
2019-05-01T00:29:32.693Z,30.40
2019-05-01T00:30:29.969Z,30.30
2019-05-01T00:31:28.110Z,30.60
2019-05-01T00:32:25.988Z,31.60
2019-05-01T00:33:26.067Z,31.30
2019-05-01T00:34:25.929Z,30.60
2019-05-01T00:35:28.019Z,31.30
2019-05-01T00:36:25.882Z,30.90
2019-05-01T00:38:25.843Z,30.60
2019-05-01T00:39:32.764Z,32.50
2019-05-01T00:40:25.760Z,31.70
2019-05-01T00:41:25.748Z,31.40
2019-05-01T00:42:26.745Z,32.10
2019-05-01T00:43:25.680Z,30.90
2019-05-01T00:44:27.679Z,31.90
2019-05-01T00:45:25.626Z,32.60
2019-05-01T00:46:26.671Z,31.30
2019-05-01T00:47:25.563Z,32.40
2019-05-01T00:48:46.651Z,31.60
2019-05-01T00:49:25.594Z,33.50
2019-05-01T00:50:40.210Z,31.20
2019-05-01T00:51:25.453Z,32.50
2019-05-01T00:52:25.483Z,32.90
2019-05-01T00:53:25.403Z,34.40
2019-05-01T00:54:27.439Z,33.70
2019-05-01T00:55:25.336Z,32.70
2019-05-01T00:56:25.407Z,33.20
2019-05-01T00:57:25.277Z,33.80
2019-05-01T00:58:25.314Z,33.90
2019-05-01T00:59:25.227Z,34.30
2019-05-01T01:00:26.334Z,33.40
2019-05-01T01:01:25.167Z,33.80
2019-05-01T01:02:25.251Z,33.80
2019-05-01T01:03:25.112Z,33.60
2019-05-01T01:04:25.171Z,31.00
2019-05-01T01:05:25.126Z,31.00
2019-05-01T01:06:27.110Z,32.10
2019-05-01T01:07:25.007Z,31.30
2019-05-01T01:08:25.078Z,32.00
2019-05-01T01:09:24.940Z,33.60
2019-05-01T01:10:26.937Z,33.30
2019-05-01T01:11:24.886Z,32.00
2019-05-01T01:12:24.847Z,32.20
2019-05-01T01:13:24.914Z,32.30
2019-05-01T01:14:24.798Z,33.60
2019-05-01T01:15:24.820Z,32.30
2019-05-01T01:16:24.740Z,33.10
2019-05-01T01:17:31.692Z,33.00
2019-05-01T01:18:24.677Z,34.40
2019-05-01T01:19:25.767Z,31.90
2019-05-01T01:20:24.623Z,34.20
2019-05-01T01:21:26.703Z,33.80
2019-05-01T01:22:24.595Z,34.40
2019-05-01T01:23:24.596Z,34.10
2019-05-01T01:24:24.529Z,33.80
2019-05-01T01:25:39.233Z,34.60
2019-05-01T01:26:24.457Z,33.40
2019-05-01T01:27:31.258Z,35.80
2019-05-01T01:28:24.394Z,36.00
2019-05-01T01:29:26.430Z,35.20
2019-05-01T01:30:24.363Z,34.50
2019-05-01T01:31:25.423Z,35.10
2019-05-01T01:32:24.285Z,34.40
2019-05-01T01:33:24.308Z,36.50
2019-05-01T01:34:24.228Z,34.50
2019-05-01T01:35:24.220Z,36.10
2019-05-01T01:36:24.159Z,36.50
2019-05-01T01:37:26.169Z,35.70
2019-05-01T01:38:24.116Z,36.40
2019-05-01T01:39:25.206Z,37.10
2019-05-01T01:40:24.055Z,37.30
2019-05-01T01:41:24.046Z,37.90
2019-05-01T01:42:24.111Z,35.90
2019-05-01T01:43:26.027Z,37.10
2019-05-01T01:44:23.933Z,37.10
2019-05-01T01:46:23.885Z,36.80
2019-05-01T01:47:24.915Z,37.40
2019-05-01T01:48:23.821Z,36.60
2019-05-01T01:49:24.862Z,38.90
2019-05-01T01:50:23.766Z,38.40
2019-05-01T01:51:30.727Z,38.70
2019-05-01T01:52:23.715Z,37.90
2019-05-01T01:53:30.213Z,37.00
2019-05-01T01:54:23.656Z,38.00
2019-05-01T01:55:24.699Z,37.30
2019-05-01T01:56:23.587Z,40.30
2019-05-01T01:57:30.243Z,38.40
2019-05-01T01:58:23.540Z,38.80
2019-05-01T01:59:23.505Z,37.40
2019-05-01T02:00:23.476Z,38.80
2019-05-01T02:01:23.520Z,38.40
2019-05-01T02:02:23.417Z,37.80
2019-05-01T02:03:23.500Z,39.60
2019-05-01T02:04:23.372Z,40.30
2019-05-01T02:05:23.412Z,39.20
2019-05-01T02:06:23.335Z,40.50
2019-05-01T02:07:23.301Z,38.20
2019-05-01T02:08:23.244Z,40.40
2019-05-01T02:09:25.258Z,39.20
2019-05-01T02:10:23.280Z,39.40
2019-05-01T02:11:23.227Z,40.40
2019-05-01T02:12:23.129Z,41.50
2019-05-01T02:13:24.160Z,39.40
2019-05-01T02:14:23.079Z,40.30
2019-05-01T02:15:23.162Z,38.90
2019-05-01T02:16:23.042Z,37.30
2019-05-01T02:17:29.718Z,39.90
2019-05-01T02:18:22.962Z,39.20
2019-05-01T02:19:25.049Z,37.90
2019-05-01T02:20:22.897Z,38.80
2019-05-01T02:22:22.844Z,38.80
2019-05-01T02:23:22.897Z,38.60
2019-05-01T02:24:22.782Z,40.30
2019-05-01T02:25:38.786Z,40.50
2019-05-01T02:26:22.731Z,42.70
2019-05-01T02:27:29.779Z,42.20
2019-05-01T02:28:22.666Z,41.30
2019-05-01T02:29:29.334Z,43.20
2019-05-01T02:30:22.622Z,42.50
2019-05-01T02:31:29.298Z,42.40
2019-05-01T02:33:22.531Z,41.80
2019-05-01T02:34:22.568Z,41.70
2019-05-01T02:35:22.473Z,39.90
2019-05-01T02:37:22.453Z,40.40
2019-05-01T02:38:22.385Z,39.20
2019-05-01T02:39:22.440Z,39.60
2019-05-01T02:40:22.433Z,38.50
2019-05-01T02:41:46.197Z,40.50
2019-05-01T02:42:22.260Z,38.70
2019-05-01T02:44:22.217Z,39.10
2019-05-01T02:45:38.746Z,38.90
2019-05-01T02:46:22.151Z,38.20
2019-05-01T02:47:24.242Z,39.00
2019-05-01T02:48:22.093Z,37.50
2019-05-01T02:49:36.806Z,38.70
2019-05-01T02:50:22.036Z,40.10
2019-05-01T02:51:36.720Z,37.90
2019-05-01T02:52:21.995Z,39.30
2019-05-01T02:53:30.786Z,39.40
2019-05-01T02:54:21.926Z,40.00
2019-05-01T02:55:23.948Z,38.60
2019-05-01T02:56:21.872Z,38.90
2019-05-01T02:57:22.930Z,38.00
2019-05-01T02:58:21.808Z,38.30
2019-05-01T03:06:42.518Z,38.00
2019-05-01T03:07:54.344Z,39.00
2019-05-01T03:08:53.523Z,37.60
2019-05-01T03:09:42.379Z,37.00
2019-05-01T03:10:53.633Z,39.70
2019-05-01T03:11:53.543Z,39.70
2019-05-01T03:12:42.296Z,40.20
2019-05-01T03:13:53.052Z,40.10
2019-05-01T03:14:52.942Z,38.80
2019-05-01T03:15:42.298Z,38.50
2019-05-01T03:16:42.190Z,38.30
2019-05-01T03:17:52.962Z,37.00
2019-05-01T03:18:42.132Z,35.90
2019-05-01T03:19:52.973Z,37.10
2019-05-01T03:20:52.879Z,38.80
2019-05-01T03:21:42.030Z,38.30
2019-05-01T03:22:53.918Z,40.80
2019-05-01T03:23:52.914Z,41.10
2019-05-01T03:24:41.966Z,40.00
2019-05-01T03:25:52.928Z,39.70
2019-05-01T03:26:53.131Z,38.60
2019-05-01T03:27:41.882Z,38.70
2019-05-01T03:28:53.114Z,41.40
2019-05-01T03:29:53.060Z,38.60
2019-05-01T03:30:41.800Z,41.30
2019-05-01T03:32:14.189Z,39.00
2019-05-01T03:32:52.554Z,40.20
2019-05-01T03:33:41.702Z,40.30
2019-05-01T03:34:53.278Z,38.90
2019-05-01T03:35:52.441Z,39.70
2019-05-01T03:36:41.614Z,40.90
2019-05-01T03:37:52.544Z,41.00
2019-05-01T03:38:52.453Z,40.60
2019-05-01T03:39:41.532Z,40.00
2019-05-01T03:40:52.473Z,40.90
2019-05-01T03:41:52.371Z,40.20
2019-05-01T03:42:41.439Z,41.90
2019-05-01T03:43:52.486Z,40.50
2019-05-01T03:44:52.394Z,37.00
2019-05-01T03:45:41.357Z,36.90
2019-05-01T03:46:52.398Z,37.60
2019-05-01T03:47:52.112Z,36.80
2019-05-01T03:48:41.284Z,36.50
2019-05-01T03:51:13.686Z,36.00
2019-05-01T03:52:13.659Z,35.00
2019-05-01T03:54:07.460Z,34.00
2019-05-01T03:55:07.433Z,36.70
2019-05-01T03:56:07.401Z,36.00
2019-05-01T03:57:07.375Z,36.30
2019-05-01T03:58:07.349Z,35.30
2019-05-01T03:59:07.305Z,36.60
2019-05-01T04:00:07.285Z,37.00
2019-05-01T04:01:07.250Z,36.30
2019-05-01T04:02:07.214Z,37.00
2019-05-01T04:03:07.192Z,36.20
2019-05-01T04:04:07.174Z,34.90
2019-05-01T04:05:07.131Z,34.50
2019-05-01T04:06:07.178Z,33.60
2019-05-01T04:07:07.093Z,34.50
2019-05-01T04:08:07.041Z,34.80
2019-05-01T04:09:07.040Z,35.20
2019-05-01T04:10:07.020Z,37.10
2019-05-01T04:11:06.963Z,36.40
2019-05-01T04:12:07.024Z,34.90
2019-05-01T04:13:06.907Z,37.60
2019-05-01T04:14:06.871Z,37.00
2019-05-01T04:15:06.851Z,38.40
2019-05-01T04:16:06.827Z,38.90
2019-05-01T04:17:06.782Z,41.20
2019-05-01T04:18:06.769Z,41.60
2019-05-01T04:19:06.734Z,41.20
2019-05-01T04:20:06.726Z,40.70
2019-05-01T04:21:06.679Z,40.80
2019-05-01T04:22:06.677Z,38.00
2019-05-01T04:23:06.612Z,37.90
2019-05-01T04:24:06.590Z,38.60
2019-05-01T04:25:06.601Z,38.10
2019-05-01T04:26:06.536Z,37.60
2019-05-01T04:27:06.507Z,36.90
2019-05-01T04:28:06.462Z,38.10
2019-05-01T04:29:06.437Z,37.70
2019-05-01T04:30:06.431Z,33.90
2019-05-01T04:31:06.376Z,34.40
2019-05-01T04:32:06.351Z,34.20
2019-05-01T04:33:06.322Z,34.60
2019-05-01T04:34:06.297Z,31.70
2019-05-01T04:35:06.273Z,32.90
2019-05-01T04:36:13.067Z,33.00
2019-05-01T04:37:08.096Z,33.60
2019-05-01T04:38:08.314Z,34.40
2019-05-01T04:39:06.148Z,34.30
2019-05-01T04:40:06.119Z,35.30
2019-05-01T04:41:06.105Z,34.50
2019-05-01T04:42:06.066Z,36.10
2019-05-01T04:43:06.066Z,33.50
2019-05-01T04:44:06.008Z,32.60
2019-05-01T04:45:06.075Z,30.80
2019-05-01T04:46:05.938Z,32.70
2019-05-01T04:47:05.988Z,31.00
2019-05-01T04:48:05.892Z,31.80
2019-05-01T04:49:05.893Z,30.70
2019-05-01T04:50:05.826Z,30.10
2019-05-01T04:51:05.903Z,32.10
2019-05-01T04:52:05.777Z,29.90
2019-05-01T04:53:05.746Z,29.90
2019-05-01T04:54:05.706Z,32.00
2019-05-01T04:55:05.686Z,30.70
2019-05-01T04:56:05.652Z,30.40
2019-05-01T04:57:05.636Z,31.00
2019-05-01T04:58:05.598Z,30.80
2019-05-01T04:59:14.343Z,31.70
2019-05-01T05:00:05.531Z,30.90
2019-05-01T05:01:06.587Z,31.30
2019-05-01T05:02:05.506Z,31.10
2019-05-01T05:03:05.634Z,31.00
2019-05-01T05:04:05.423Z,31.90
2019-05-01T05:06:05.358Z,31.30
2019-05-01T05:07:05.344Z,31.90
2019-05-01T05:08:12.249Z,30.80
2019-05-01T05:09:05.277Z,31.40
2019-05-01T05:10:05.320Z,31.30
2019-05-01T05:11:05.217Z,31.40
2019-05-01T05:12:05.228Z,31.80
2019-05-01T05:13:05.184Z,32.40
2019-05-01T05:22:02.402Z,36.40
2019-05-01T05:23:02.427Z,34.80
2019-05-01T05:24:02.326Z,35.20
2019-05-01T05:25:02.328Z,35.60
2019-05-01T05:26:02.283Z,34.70
2019-05-01T05:27:02.343Z,34.40
2019-05-01T05:28:02.230Z,35.30
2019-05-01T05:29:02.260Z,34.40
2019-05-01T05:30:02.155Z,34.30
2019-05-01T05:31:02.173Z,34.20
2019-05-01T05:32:02.098Z,35.30
2019-05-01T05:33:02.089Z,34.40
2019-05-01T05:34:02.040Z,35.90
2019-05-01T05:36:01.976Z,37.50
2019-05-01T05:37:11.014Z,35.60
2019-05-01T05:38:01.917Z,35.50
2019-05-01T05:39:10.533Z,34.90
2019-05-01T05:40:01.866Z,35.00
2019-05-01T05:41:03.879Z,33.50
2019-05-01T05:42:01.805Z,34.50
2019-05-01T05:43:09.518Z,33.90
2019-05-01T05:44:01.754Z,36.50
2019-05-01T05:45:10.448Z,35.40
2019-05-01T05:46:01.689Z,38.10
2019-05-01T05:47:17.453Z,37.90
2019-05-01T05:48:01.624Z,37.70
2019-05-01T05:49:25.450Z,34.90
2019-05-01T05:50:01.582Z,32.50
2019-05-01T05:51:01.609Z,33.90
2019-05-01T05:52:01.510Z,33.50
2019-05-01T05:53:26.503Z,32.10
2019-05-01T05:54:01.455Z,33.40
2019-05-01T05:55:01.427Z,32.20
2019-05-01T05:56:02.456Z,33.10
2019-05-01T05:57:01.381Z,33.20
2019-05-01T05:59:01.317Z,32.40
2019-05-01T06:01:01.245Z,31.80
2019-05-01T06:02:01.213Z,33.00
2019-05-01T06:04:01.161Z,31.00
2019-05-01T06:05:01.234Z,32.00
2019-05-01T06:06:01.123Z,33.10
2019-05-01T06:07:01.077Z,30.50
2019-05-01T06:08:01.049Z,31.90
2019-05-01T06:09:01.019Z,30.50
2019-05-01T06:10:00.983Z,30.40
2019-05-01T06:11:01.072Z,29.00
2019-05-01T06:12:05.023Z,29.20
2019-05-01T06:13:01.027Z,28.40
2019-05-01T06:14:00.869Z,31.20
2019-05-01T06:15:02.446Z,30.70
2019-05-01T06:16:00.810Z,29.20
2019-05-01T06:17:00.840Z,29.90
2019-05-01T06:18:04.161Z,29.20
2019-05-01T06:19:00.736Z,29.50
2019-05-01T06:20:00.694Z,30.70
2019-05-01T06:21:02.153Z,29.90
2019-05-01T06:22:04.930Z,28.40
2019-05-01T06:23:00.617Z,31.90
2019-05-01T06:24:06.302Z,30.50
2019-05-01T06:25:00.551Z,32.30
2019-05-01T06:26:02.483Z,31.60
2019-05-01T06:27:00.504Z,31.30
2019-05-01T06:28:00.524Z,31.20
2019-05-01T06:29:01.971Z,31.00
2019-05-01T06:30:00.515Z,29.20
2019-05-01T06:31:00.368Z,29.40
2019-05-01T06:32:00.431Z,29.30
2019-05-01T06:33:04.197Z,27.00
2019-05-01T06:34:00.281Z,28.30
2019-05-01T06:35:03.091Z,28.60
2019-05-01T06:36:00.234Z,29.10
2019-05-01T06:37:00.243Z,29.10
2019-05-01T06:38:00.731Z,30.00
2019-05-01T06:39:02.254Z,28.50
2019-05-01T06:40:00.121Z,31.00
2019-05-01T06:41:00.181Z,28.70
2019-05-01T06:42:00.076Z,28.30
2019-05-01T06:43:01.106Z,29.00
2019-05-01T06:44:02.209Z,28.60
2019-05-01T06:45:16.777Z,29.40
2019-05-01T06:46:00.043Z,29.20
2019-05-01T06:47:03.261Z,29.20
2019-05-01T06:47:59.877Z,28.20
2019-05-01T06:48:59.911Z,28.60
2019-05-01T06:50:01.226Z,27.00
2019-05-01T06:51:07.508Z,28.10
2019-05-01T06:51:59.803Z,27.00
2019-05-01T06:53:06.729Z,26.10
2019-05-01T06:53:59.702Z,28.10
2019-05-01T06:54:59.739Z,26.70
2019-05-01T06:55:59.645Z,27.80
2019-05-01T06:57:07.539Z,26.50
2019-05-01T06:57:59.592Z,27.50
2019-05-01T06:59:14.535Z,26.00
2019-05-01T07:00:03.121Z,27.60
2019-05-01T07:00:59.498Z,26.70
2019-05-01T07:02:00.251Z,28.20
2019-05-01T07:02:59.444Z,28.50
2019-05-01T07:04:03.862Z,28.50
2019-05-01T07:04:59.393Z,28.90
2019-05-01T07:06:13.361Z,28.50
2019-05-01T07:07:01.894Z,29.30
2019-05-01T07:07:59.336Z,28.00
2019-05-01T07:08:59.288Z,27.60
2019-05-01T07:10:08.060Z,26.80
2019-05-01T07:10:59.212Z,28.70
2019-05-01T07:11:59.267Z,28.40
2019-05-01T07:12:59.911Z,26.60
2019-05-01T07:14:11.220Z,28.00
2019-05-01T07:14:59.145Z,27.40
2019-05-01T07:16:03.067Z,29.40
2019-05-01T07:16:59.071Z,30.70
2019-05-01T07:18:00.144Z,29.60
2019-05-01T07:19:05.735Z,29.90
2019-05-01T07:20:01.091Z,30.20
2019-05-01T07:20:58.945Z,32.10
2019-05-01T07:22:01.819Z,30.80
2019-05-01T07:22:58.907Z,29.90
2019-05-01T07:24:07.559Z,30.30
2019-05-01T07:25:03.383Z,30.40
2019-05-01T07:25:58.870Z,30.40
2019-05-01T07:26:59.855Z,30.40
2019-05-01T07:27:59.755Z,30.30
2019-05-01T07:28:58.707Z,31.00
2019-05-01T07:29:58.777Z,31.00
2019-05-01T07:30:58.678Z,30.80
2019-05-01T07:32:01.642Z,29.90
2019-05-01T07:32:58.600Z,30.80
2019-05-01T07:33:58.594Z,30.50
2019-05-01T07:35:02.082Z,30.90
2019-05-01T07:35:58.608Z,29.30
2019-05-01T07:36:58.498Z,29.50
2019-05-01T07:38:02.260Z,29.50
2019-05-01T07:38:58.415Z,28.90
2019-05-01T07:39:58.421Z,28.20
2019-05-01T07:40:58.899Z,28.30
2019-05-01T07:41:58.436Z,27.80
2019-05-01T07:42:58.337Z,26.70
2019-05-01T07:43:59.720Z,27.00
2019-05-01T07:44:58.224Z,26.30
2019-05-01T07:46:07.089Z,25.20
2019-05-01T07:46:58.209Z,26.10
2019-05-01T07:48:01.087Z,26.30
2019-05-01T07:48:58.154Z,24.80
2019-05-01T07:50:00.170Z,24.20
2019-05-01T07:51:01.843Z,26.10
2019-05-01T07:52:01.708Z,23.90
2019-05-01T07:52:58.018Z,24.40
2019-05-01T07:54:08.737Z,25.00
2019-05-01T07:54:57.939Z,24.30
2019-05-01T07:55:57.957Z,23.70
2019-05-01T07:56:58.653Z,24.50
2019-05-01T07:57:57.864Z,23.60
2019-05-01T07:58:58.982Z,24.10
2019-05-01T07:59:58.332Z,23.60
2019-05-01T08:00:58.880Z,24.50
2019-05-01T08:01:57.733Z,25.30
2019-05-01T08:02:57.758Z,24.40
2019-05-01T08:03:57.686Z,24.70
2019-05-01T08:04:59.739Z,25.00
2019-05-01T08:05:57.642Z,26.00
2019-05-01T08:06:58.690Z,25.70
2019-05-01T08:07:57.578Z,24.80
2019-05-01T08:08:57.551Z,26.30
2019-05-01T08:09:57.513Z,24.40
2019-05-01T08:10:59.821Z,24.40
2019-05-01T08:11:57.483Z,25.30
2019-05-01T08:13:00.340Z,24.80
2019-05-01T08:14:07.109Z,25.80
2019-05-01T08:14:57.370Z,25.00
2019-05-01T08:15:57.450Z,25.30
2019-05-01T08:16:57.381Z,24.00
2019-05-01T08:17:57.287Z,24.60
2019-05-01T08:18:59.003Z,25.10
2019-05-01T08:19:57.255Z,25.30
2019-05-01T08:20:57.219Z,24.30
2019-05-01T08:22:01.698Z,23.80
2019-05-01T08:22:57.159Z,23.40
2019-05-01T08:23:57.121Z,23.90
2019-05-01T08:24:58.763Z,24.60
2019-05-01T08:25:57.063Z,24.60
2019-05-01T08:26:57.179Z,24.00
2019-05-01T08:27:58.109Z,24.10
2019-05-01T08:28:57.140Z,25.10
2019-05-01T08:29:56.942Z,22.60
2019-05-01T08:30:57.095Z,23.00
2019-05-01T08:31:58.749Z,23.40
2019-05-01T08:32:56.906Z,23.40
2019-05-01T08:33:56.870Z,24.00
2019-05-01T08:35:00.381Z,23.50
2019-05-01T08:35:56.787Z,23.00
2019-05-01T08:36:56.959Z,23.30
2019-05-01T08:37:58.496Z,23.50
2019-05-01T08:38:56.885Z,24.10
2019-05-01T08:39:56.691Z,22.60
2019-05-01T08:40:56.858Z,22.80
2019-05-01T08:41:56.592Z,23.60
2019-05-01T08:42:56.774Z,23.40
2019-05-01T08:43:56.525Z,23.60
2019-05-01T08:44:59.858Z,22.50
2019-05-01T08:45:56.520Z,23.40
2019-05-01T08:46:56.607Z,24.10
2019-05-01T08:47:56.758Z,24.30
2019-05-01T08:48:56.438Z,25.60
2019-05-01T08:49:56.357Z,24.50
2019-05-01T08:51:11.060Z,22.60
2019-05-01T08:51:56.305Z,24.60
2019-05-01T08:53:34.078Z,24.00
2019-05-01T08:53:57.957Z,24.20
2019-05-01T08:54:56.269Z,23.70
2019-05-01T08:55:56.276Z,23.90
2019-05-01T08:56:57.976Z,23.60
2019-05-01T08:57:56.108Z,23.90
2019-05-01T08:58:56.192Z,25.40
2019-05-01T09:00:00.397Z,24.90
2019-05-01T09:00:56.097Z,24.10
2019-05-01T09:02:09.026Z,23.70
2019-05-01T09:03:07.902Z,24.50
2019-05-01T09:03:56.072Z,24.80
2019-05-01T09:05:02.529Z,24.10
2019-05-01T09:05:57.298Z,25.70
2019-05-01T09:06:55.894Z,24.80
2019-05-01T09:07:57.656Z,25.30
2019-05-01T09:08:55.805Z,24.40
2019-05-01T09:09:55.896Z,26.30
2019-05-01T09:11:00.280Z,24.70
2019-05-01T09:11:55.785Z,26.10
2019-05-01T09:12:55.700Z,25.10
2019-05-01T09:13:58.925Z,26.50
2019-05-01T09:14:55.632Z,26.00
2019-05-01T09:15:55.658Z,25.20
2019-05-01T09:16:55.592Z,26.20
2019-05-01T09:17:55.544Z,25.60
2019-05-01T09:18:55.630Z,23.50
2019-05-01T09:19:55.479Z,24.90
2019-05-01T09:20:55.482Z,25.20
2019-05-01T09:21:55.549Z,25.90
2019-05-01T09:22:55.427Z,25.20
2019-05-01T09:23:55.465Z,26.00
2019-05-01T09:24:59.895Z,25.60
2019-05-01T09:25:56.408Z,25.70
2019-05-01T09:26:55.289Z,28.10
2019-05-01T09:27:55.452Z,26.80
2019-05-01T09:28:55.254Z,25.70
2019-05-01T09:29:55.268Z,27.00
2019-05-01T09:31:01.372Z,27.80
2019-05-01T09:31:55.171Z,25.80
2019-05-01T09:32:55.576Z,25.40
2019-05-01T09:33:55.103Z,25.90
2019-05-01T09:34:58.035Z,27.10
2019-05-01T09:35:56.139Z,27.30
2019-05-01T09:36:55.971Z,27.00
2019-05-01T09:37:57.739Z,25.60
2019-05-01T09:38:54.952Z,26.80
2019-05-01T09:39:54.978Z,27.50
2019-05-01T09:40:54.917Z,27.40
2019-05-01T09:41:54.985Z,25.90
2019-05-01T09:42:58.968Z,26.40
2019-05-01T09:43:54.893Z,26.90
2019-05-01T09:44:54.772Z,25.90
2019-05-01T09:45:54.779Z,27.80
2019-05-01T09:46:54.723Z,27.50
2019-05-01T09:47:54.718Z,28.30
2019-05-01T09:48:54.653Z,27.20
2019-05-01T09:49:55.975Z,27.50
2019-05-01T09:50:54.598Z,26.80
2019-05-01T09:51:54.566Z,25.80
2019-05-01T09:52:55.164Z,27.00
2019-05-01T09:53:54.622Z,26.80
2019-05-01T09:54:54.520Z,26.60
2019-05-01T09:55:54.436Z,26.70
2019-05-01T09:56:54.439Z,26.90
2019-05-01T09:57:55.431Z,27.30
2019-05-01T09:58:54.375Z,26.80
2019-05-01T09:59:54.362Z,26.60
2019-05-01T10:00:54.346Z,27.90
2019-05-01T10:01:54.318Z,27.10
2019-05-01T10:02:54.737Z,26.20
2019-05-01T10:03:54.823Z,28.00
2019-05-01T10:04:54.178Z,26.70
2019-05-01T10:05:54.269Z,27.80
2019-05-01T10:06:54.224Z,25.60
2019-05-01T10:07:54.188Z,26.90
2019-05-01T10:08:54.081Z,28.50
2019-05-01T10:09:55.163Z,27.80
2019-05-01T10:10:54.021Z,26.20
2019-05-01T10:11:56.175Z,28.00
2019-05-01T10:12:54.011Z,27.60
2019-05-01T10:13:58.545Z,25.90
2019-05-01T10:14:53.907Z,26.60
2019-05-01T10:15:53.895Z,26.80
2019-05-01T10:16:53.856Z,27.70
2019-05-01T10:17:53.851Z,27.30
2019-05-01T10:18:53.948Z,28.00
2019-05-01T10:19:53.845Z,26.40
2019-05-01T10:20:53.735Z,26.60
2019-05-01T10:21:53.720Z,25.40
2019-05-01T10:22:53.728Z,25.50
2019-05-01T10:23:53.861Z,27.00
2019-05-01T10:24:53.702Z,26.80
2019-05-01T10:25:53.617Z,26.20
2019-05-01T10:26:55.237Z,27.20
2019-05-01T10:27:53.585Z,26.00
2019-05-01T10:28:53.519Z,26.20
2019-05-01T10:29:56.918Z,26.70
2019-05-01T10:30:53.519Z,24.70
2019-05-01T10:31:53.487Z,26.50
2019-05-01T10:32:58.010Z,27.20
2019-05-01T10:33:54.361Z,24.90
2019-05-01T10:34:53.353Z,27.10
2019-05-01T10:35:53.334Z,24.80
2019-05-01T10:36:54.596Z,24.90
2019-05-01T10:37:53.294Z,25.80
2019-05-01T10:38:53.223Z,24.40
2019-05-01T10:39:54.127Z,26.20
2019-05-01T10:40:53.188Z,25.70
2019-05-01T10:41:53.225Z,24.90
2019-05-01T10:42:53.096Z,24.30
2019-05-01T10:43:53.081Z,26.10
2019-05-01T10:44:53.062Z,26.00
2019-05-01T10:45:53.008Z,25.70
2019-05-01T10:46:52.990Z,25.30
2019-05-01T10:47:52.977Z,25.30
2019-05-01T10:48:52.924Z,26.40
2019-05-01T10:50:07.533Z,26.60
2019-05-01T10:50:52.887Z,27.10
2019-05-01T10:53:25.091Z,25.50
2019-05-01T12:05:36.703Z,26.40
2019-05-01T12:06:33.796Z,27.10
2019-05-01T12:07:33.894Z,27.70
2019-05-01T12:08:33.729Z,29.20
2019-05-01T12:09:33.704Z,29.40
2019-05-01T12:10:33.676Z,29.30
2019-05-01T12:11:34.651Z,28.30
2019-05-01T12:12:33.613Z,28.80
2019-05-01T12:18:16.893Z,29.30
2019-05-01T12:19:14.219Z,28.90
2019-05-01T12:20:14.169Z,28.10
2019-05-01T12:21:14.149Z,29.30
2019-05-01T12:22:14.095Z,29.00
2019-05-01T12:23:14.088Z,29.10
2019-05-01T12:24:14.052Z,29.40
2019-05-01T12:25:14.027Z,29.00
2019-05-01T12:26:13.993Z,29.70
2019-05-01T12:27:13.967Z,29.70
2019-05-01T12:28:13.932Z,29.60
2019-05-01T12:29:13.926Z,29.10
2019-05-01T12:30:13.878Z,28.40
2019-05-01T12:31:13.847Z,28.90
2019-05-01T12:32:13.827Z,28.60
2019-05-01T12:33:13.802Z,28.20
2019-05-01T12:34:13.772Z,27.30
2019-05-01T12:35:13.744Z,27.20
2019-05-01T12:36:13.708Z,28.40
2019-05-01T12:37:13.706Z,28.10
2019-05-01T12:38:13.651Z,27.50
2019-05-01T12:39:13.633Z,26.70
2019-05-01T12:40:13.593Z,28.00
2019-05-01T12:41:13.570Z,25.90
2019-05-01T12:42:13.536Z,27.00
2019-05-01T12:43:13.515Z,27.50
2019-05-01T12:44:13.479Z,28.00
2019-05-01T12:45:13.457Z,28.50
2019-05-01T12:46:13.437Z,27.70
2019-05-01T12:47:13.402Z,29.10
2019-05-01T12:48:13.466Z,27.10
2019-05-01T12:49:15.766Z,28.00
2019-05-01T12:50:13.328Z,27.70
2019-05-01T12:51:14.289Z,27.60
2019-05-01T12:52:13.255Z,28.80
2019-05-01T12:53:13.238Z,27.20
2019-05-01T12:54:13.203Z,28.90
2019-05-01T12:55:13.196Z,27.30
2019-05-01T12:56:13.155Z,27.60
2019-05-01T12:57:13.124Z,27.40
2019-05-01T12:58:13.098Z,26.30
2019-05-01T12:59:13.072Z,27.90
2019-05-01T13:00:13.052Z,28.10
2019-05-01T13:01:13.033Z,28.20
2019-05-01T13:02:12.988Z,27.50
2019-05-01T13:03:12.950Z,27.50
2019-05-01T13:04:12.931Z,27.40
2019-05-01T13:05:12.894Z,27.40
2019-05-01T13:06:14.407Z,28.50
2019-05-01T13:07:12.957Z,29.10
2019-05-01T13:08:12.808Z,29.70
2019-05-01T13:09:12.829Z,27.50
2019-05-01T13:10:12.759Z,28.70
2019-05-01T13:11:12.760Z,28.20
2019-05-01T13:12:12.688Z,28.90
2019-05-01T13:13:12.669Z,28.70
2019-05-01T13:14:12.654Z,29.30
2019-05-01T13:15:12.614Z,29.30
2019-05-01T13:16:12.602Z,28.60
2019-05-01T13:17:12.562Z,28.80
2019-05-01T13:18:12.528Z,28.00
2019-05-01T13:19:12.535Z,29.50
2019-05-01T13:20:12.535Z,28.50
2019-05-01T13:21:12.434Z,29.90
2019-05-01T13:22:12.467Z,30.00
2019-05-01T13:23:12.385Z,28.80
2019-05-01T13:24:14.364Z,30.10
2019-05-01T13:25:12.324Z,28.70
2019-05-01T13:26:12.309Z,29.70
2019-05-01T13:27:12.266Z,29.80
2019-05-01T13:28:12.244Z,29.60
2019-05-01T13:29:12.220Z,29.80
2019-05-01T13:30:12.215Z,30.40
2019-05-01T13:31:12.164Z,28.20
2019-05-01T13:32:12.140Z,29.50
2019-05-01T13:33:12.108Z,28.40
2019-05-01T13:34:12.090Z,30.00
2019-05-01T13:35:12.044Z,28.70
2019-05-01T13:36:13.097Z,29.90
2019-05-01T13:37:11.987Z,30.10
2019-05-01T13:38:11.961Z,29.00
2019-05-01T13:39:11.931Z,30.00
2019-05-01T13:40:12.903Z,29.10
2019-05-01T13:41:11.873Z,29.70
2019-05-01T13:42:11.845Z,29.70
2019-05-01T13:43:11.822Z,30.80
2019-05-01T13:44:11.815Z,29.50
2019-05-01T13:45:11.775Z,29.10
2019-05-01T13:46:11.749Z,28.80
2019-05-01T13:47:11.712Z,28.60
2019-05-01T13:48:11.679Z,30.00
2019-05-01T13:49:11.648Z,29.40
2019-05-01T13:50:11.627Z,29.20
2019-05-01T13:51:11.595Z,25.50
2019-05-01T13:52:11.575Z,29.50
2019-05-01T13:53:11.544Z,29.40
2019-05-01T13:54:11.515Z,29.50
2019-05-01T13:55:11.483Z,30.00
2019-05-01T13:56:11.464Z,29.50
2019-05-01T13:57:11.425Z,29.20
2019-05-01T13:58:11.449Z,28.90
2019-05-01T13:59:11.372Z,28.40
2019-05-01T14:00:11.365Z,30.20
2019-05-01T14:01:11.310Z,29.90
2019-05-01T14:02:17.932Z,29.10
2019-05-01T14:03:11.264Z,29.00
2019-05-01T14:04:11.230Z,29.40
2019-05-01T14:05:11.200Z,29.10
2019-05-01T14:06:19.924Z,28.20
2019-05-01T14:07:16.632Z,27.80
2019-05-01T14:08:11.212Z,28.50
2019-05-01T14:09:11.093Z,29.30
2019-05-01T14:10:12.071Z,29.40
2019-05-01T14:11:11.055Z,27.90
2019-05-01T14:12:12.036Z,28.00
2019-05-01T14:13:10.980Z,29.20
2019-05-01T14:14:12.955Z,27.80
2019-05-01T14:15:10.922Z,30.10
2019-05-01T14:16:10.894Z,29.60
2019-05-01T14:17:10.863Z,29.20
2019-05-01T14:18:11.850Z,29.80
2019-05-01T14:19:10.814Z,29.70
2019-05-01T14:20:12.804Z,28.20
2019-05-01T14:21:10.763Z,29.90
2019-05-01T14:22:18.427Z,27.70
2019-05-01T14:23:10.708Z,29.70
2019-05-01T14:24:11.680Z,29.40
2019-05-01T14:25:10.650Z,28.80
2019-05-01T14:26:11.632Z,28.50
2019-05-01T14:27:10.603Z,27.10
2019-05-01T14:28:10.580Z,27.10
2019-05-01T14:29:10.615Z,29.00
2019-05-01T14:30:10.516Z,28.60
2019-05-01T14:31:10.517Z,29.00
2019-05-01T14:32:10.476Z,27.00
2019-05-01T14:33:10.462Z,27.70
2019-05-01T14:34:10.432Z,27.70
2019-05-01T14:35:10.374Z,27.90
2019-05-01T14:36:10.377Z,27.90
2019-05-01T14:37:10.309Z,28.30
2019-05-01T14:38:10.282Z,26.90